ES-0055 weather

Aeródromo de Antequera
Antequera, Andalucía, Spain

Public forecast

Using degrees Celsius for public forecast. Weather courtesy of forecast.io.

METAR (pilot weather report)

Closest report is Málaga Airport, 25.8 nm (47.8 km) S. Retrieved 2019/02/16 21:00 UTC (10 minutes ago):

LEMG 162100Z 10010KT 9999 FEW020 SCT025 14/10 Q1024 NOSIG

TAF (pilot weather forecast)

Closest forecast is Málaga Airport, 25.8 nm (47.8 km) S. Retrieved 2019/02/16 18:27 UTC (3 hours ago):

TAF LEMG 161700Z 1618/1718 13009KT 9999 SCT020 TX18/1714Z TN10/1707Z BECMG 1622/1624 29005KT BECMG 1709/1711 13006KT